sensor_id;sensor_type;location;lat;lon;timestamp;P1;durP1;ratioP1;P2;durP2;ratioP2
6663;SDS011;58749;48.022;10.922;2022-11-20T00:01:12;4.82;;;2.78;;
6663;SDS011;58749;48.022;10.922;2022-11-20T00:03:41;4.40;;;2.50;;
6663;SDS011;58749;48.022;10.922;2022-11-20T00:06:11;7.82;;;2.83;;
6663;SDS011;58749;48.022;10.922;2022-11-20T00:08:41;3.47;;;2.55;;
6663;SDS011;58749;48.022;10.922;2022-11-20T00:11:11;2.83;;;2.40;;
6663;SDS011;58749;48.022;10.922;2022-11-20T00:13:42;6.50;;;2.90;;
6663;SDS011;58749;48.022;10.922;2022-11-20T00:16:12;5.10;;;2.90;;
6663;SDS011;58749;48.022;10.922;2022-11-20T00:18:42;4.15;;;2.60;;
6663;SDS011;58749;48.022;10.922;2022-11-20T00:21:12;2.90;;;2.53;;
6663;SDS011;58749;48.022;10.922;2022-11-20T00:23:42;3.78;;;3.20;;
6663;SDS011;58749;48.022;10.922;2022-11-20T00:26:12;5.80;;;2.67;;
6663;SDS011;58749;48.022;10.922;2022-11-20T00:28:48;4.55;;;3.08;;
6663;SDS011;58749;48.022;10.922;2022-11-20T00:31:18;4.53;;;2.55;;
6663;SDS011;58749;48.022;10.922;2022-11-20T00:33:47;3.40;;;2.63;;
6663;SDS011;58749;48.022;10.922;2022-11-20T00:36:16;4.85;;;2.83;;
6663;SDS011;58749;48.022;10.922;2022-11-20T00:38:50;5.55;;;2.95;;
6663;SDS011;58749;48.022;10.922;2022-11-20T00:41:20;4.00;;;2.58;;
6663;SDS011;58749;48.022;10.922;2022-11-20T00:43:50;3.17;;;2.70;;
6663;SDS011;58749;48.022;10.922;2022-11-20T00:46:22;5.00;;;2.72;;
6663;SDS011;58749;48.022;10.922;2022-11-20T00:48:51;3.50;;;2.80;;
6663;SDS011;58749;48.022;10.922;2022-11-20T00:51:21;3.17;;;2.53;;
6663;SDS011;58749;48.022;10.922;2022-11-20T00:53:54;4.57;;;3.00;;
6663;SDS011;58749;48.022;10.922;2022-11-20T00:56:23;4.43;;;2.33;;
6663;SDS011;58749;48.022;10.922;2022-11-20T00:58:51;2.63;;;2.40;;
6663;SDS011;58749;48.022;10.922;2022-11-20T01:01:21;3.83;;;2.33;;
6663;SDS011;58749;48.022;10.922;2022-11-20T01:03:54;2.75;;;2.47;;
6663;SDS011;58749;48.022;10.922;2022-11-20T01:06:23;4.53;;;2.72;;
6663;SDS011;58749;48.022;10.922;2022-11-20T01:08:54;3.92;;;2.80;;
6663;SDS011;58749;48.022;10.922;2022-11-20T01:11:25;5.60;;;2.70;;
6663;SDS011;58749;48.022;10.922;2022-11-20T01:13:55;4.03;;;2.40;;
6663;SDS011;58749;48.022;10.922;2022-11-20T01:16:26;3.60;;;2.70;;
6663;SDS011;58749;48.022;10.922;2022-11-20T01:18:57;3.38;;;2.50;;
6663;SDS011;58749;48.022;10.922;2022-11-20T01:21:28;3.70;;;2.53;;
6663;SDS011;58749;48.022;10.922;2022-11-20T01:23:58;3.50;;;2.17;;
6663;SDS011;58749;48.022;10.922;2022-11-20T01:26:28;5.63;;;2.75;;
6663;SDS011;58749;48.022;10.922;2022-11-20T01:28:58;5.00;;;2.60;;
6663;SDS011;58749;48.022;10.922;2022-11-20T01:31:28;5.60;;;2.75;;
6663;SDS011;58749;48.022;10.922;2022-11-20T01:33:58;4.47;;;2.53;;
6663;SDS011;58749;48.022;10.922;2022-11-20T01:36:28;3.72;;;2.95;;
6663;SDS011;58749;48.022;10.922;2022-11-20T01:39:00;4.32;;;2.75;;
6663;SDS011;58749;48.022;10.922;2022-11-20T01:41:33;4.00;;;2.90;;
6663;SDS011;58749;48.022;10.922;2022-11-20T01:44:20;4.78;;;2.90;;
6663;SDS011;58749;48.022;10.922;2022-11-20T01:46:52;3.67;;;3.13;;
6663;SDS011;58749;48.022;10.922;2022-11-20T01:49:24;4.13;;;2.92;;
6663;SDS011;58749;48.022;10.922;2022-11-20T01:51:57;6.15;;;3.13;;
6663;SDS011;58749;48.022;10.922;2022-11-20T01:54:30;4.60;;;3.22;;
6663;SDS011;58749;48.022;10.922;2022-11-20T01:57:03;5.05;;;2.65;;
6663;SDS011;58749;48.022;10.922;2022-11-20T01:59:35;4.57;;;2.95;;
6663;SDS011;58749;48.022;10.922;2022-11-20T02:02:08;3.95;;;2.63;;
6663;SDS011;58749;48.022;10.922;2022-11-20T02:04:36;5.25;;;2.70;;
6663;SDS011;58749;48.022;10.922;2022-11-20T02:07:05;4.55;;;3.20;;
6663;SDS011;58749;48.022;10.922;2022-11-20T02:09:34;3.85;;;2.88;;
6663;SDS011;58749;48.022;10.922;2022-11-20T02:12:03;4.72;;;3.65;;
6663;SDS011;58749;48.022;10.922;2022-11-20T02:14:31;6.90;;;2.90;;
6663;SDS011;58749;48.022;10.922;2022-11-20T02:16:58;6.13;;;3.17;;
6663;SDS011;58749;48.022;10.922;2022-11-20T02:19:28;3.92;;;2.92;;
6663;SDS011;58749;48.022;10.922;2022-11-20T02:21:59;4.10;;;3.35;;
6663;SDS011;58749;48.022;10.922;2022-11-20T02:24:34;3.90;;;3.20;;
6663;SDS011;58749;48.022;10.922;2022-11-20T02:27:04;4.18;;;3.35;;
6663;SDS011;58749;48.022;10.922;2022-11-20T02:29:36;7.20;;;3.80;;
6663;SDS011;58749;48.022;10.922;2022-11-20T02:32:17;4.32;;;3.40;;
6663;SDS011;58749;48.022;10.922;2022-11-20T02:34:46;5.28;;;3.47;;
6663;SDS011;58749;48.022;10.922;2022-11-20T02:37:15;5.53;;;3.78;;
6663;SDS011;58749;48.022;10.922;2022-11-20T02:39:45;6.55;;;4.13;;
6663;SDS011;58749;48.022;10.922;2022-11-20T02:42:15;4.60;;;3.50;;
6663;SDS011;58749;48.022;10.922;2022-11-20T02:44:45;6.07;;;3.97;;
6663;SDS011;58749;48.022;10.922;2022-11-20T02:47:13;4.63;;;3.72;;
6663;SDS011;58749;48.022;10.922;2022-11-20T02:49:42;5.93;;;3.95;;
6663;SDS011;58749;48.022;10.922;2022-11-20T02:52:11;6.90;;;4.20;;
6663;SDS011;58749;48.022;10.922;2022-11-20T02:54:39;5.32;;;3.75;;
6663;SDS011;58749;48.022;10.922;2022-11-20T02:57:08;8.65;;;4.03;;
6663;SDS011;58749;48.022;10.922;2022-11-20T02:59:38;7.75;;;4.03;;
6663;SDS011;58749;48.022;10.922;2022-11-20T03:02:08;5.57;;;4.43;;
6663;SDS011;58749;48.022;10.922;2022-11-20T03:04:36;7.82;;;4.50;;
6663;SDS011;58749;48.022;10.922;2022-11-20T03:07:05;8.15;;;4.60;;
6663;SDS011;58749;48.022;10.922;2022-11-20T03:09:33;6.07;;;4.13;;
6663;SDS011;58749;48.022;10.922;2022-11-20T03:12:01;6.30;;;4.25;;
6663;SDS011;58749;48.022;10.922;2022-11-20T03:14:31;6.65;;;4.75;;
6663;SDS011;58749;48.022;10.922;2022-11-20T03:17:01;5.22;;;4.57;;
6663;SDS011;58749;48.022;10.922;2022-11-20T03:19:29;5.95;;;4.53;;
6663;SDS011;58749;48.022;10.922;2022-11-20T03:21:57;5.60;;;4.45;;
6663;SDS011;58749;48.022;10.922;2022-11-20T03:24:26;7.15;;;4.35;;
6663;SDS011;58749;48.022;10.922;2022-11-20T03:26:55;7.03;;;4.47;;
6663;SDS011;58749;48.022;10.922;2022-11-20T03:29:24;6.18;;;4.18;;
6663;SDS011;58749;48.022;10.922;2022-11-20T03:31:54;7.57;;;4.57;;
6663;SDS011;58749;48.022;10.922;2022-11-20T03:34:22;8.30;;;4.60;;
6663;SDS011;58749;48.022;10.922;2022-11-20T03:36:50;6.10;;;4.60;;
6663;SDS011;58749;48.022;10.922;2022-11-20T03:39:18;6.07;;;4.30;;
6663;SDS011;58749;48.022;10.922;2022-11-20T03:41:48;4.75;;;4.00;;
6663;SDS011;58749;48.022;10.922;2022-11-20T03:44:16;6.25;;;4.50;;
6663;SDS011;58749;48.022;10.922;2022-11-20T03:46:44;6.40;;;4.20;;
6663;SDS011;58749;48.022;10.922;2022-11-20T03:49:14;5.05;;;4.03;;
6663;SDS011;58749;48.022;10.922;2022-11-20T03:51:42;5.75;;;4.20;;
6663;SDS011;58749;48.022;10.922;2022-11-20T03:54:10;5.60;;;4.43;;
6663;SDS011;58749;48.022;10.922;2022-11-20T03:56:39;5.00;;;4.18;;
6663;SDS011;58749;48.022;10.922;2022-11-20T03:59:09;7.43;;;4.90;;
6663;SDS011;58749;48.022;10.922;2022-11-20T04:01:38;6.75;;;4.13;;
6663;SDS011;58749;48.022;10.922;2022-11-20T04:04:12;4.72;;;3.45;;
6663;SDS011;58749;48.022;10.922;2022-11-20T04:06:41;5.88;;;4.43;;
6663;SDS011;58749;48.022;10.922;2022-11-20T04:09:09;4.18;;;3.78;;
6663;SDS011;58749;48.022;10.922;2022-11-20T04:11:39;5.85;;;4.88;;
6663;SDS011;58749;48.022;10.922;2022-11-20T04:14:11;4.18;;;3.70;;
6663;SDS011;58749;48.022;10.922;2022-11-20T04:16:41;4.60;;;3.67;;
6663;SDS011;58749;48.022;10.922;2022-11-20T04:19:10;5.00;;;4.20;;
6663;SDS011;58749;48.022;10.922;2022-11-20T04:21:41;5.63;;;3.60;;
6663;SDS011;58749;48.022;10.922;2022-11-20T04:24:09;3.95;;;3.40;;
6663;SDS011;58749;48.022;10.922;2022-11-20T04:26:38;5.18;;;3.53;;
6663;SDS011;58749;48.022;10.922;2022-11-20T04:29:09;5.00;;;3.60;;
6663;SDS011;58749;48.022;10.922;2022-11-20T04:31:38;4.65;;;3.83;;
6663;SDS011;58749;48.022;10.922;2022-11-20T04:34:07;5.15;;;3.75;;
6663;SDS011;58749;48.022;10.922;2022-11-20T04:36:38;4.13;;;3.60;;
6663;SDS011;58749;48.022;10.922;2022-11-20T04:39:11;7.68;;;3.70;;
6663;SDS011;58749;48.022;10.922;2022-11-20T04:41:40;4.63;;;3.50;;
6663;SDS011;58749;48.022;10.922;2022-11-20T04:44:09;4.40;;;3.78;;
6663;SDS011;58749;48.022;10.922;2022-11-20T04:46:38;4.90;;;3.60;;
6663;SDS011;58749;48.022;10.922;2022-11-20T04:49:07;5.57;;;4.43;;
6663;SDS011;58749;48.022;10.922;2022-11-20T04:51:36;4.88;;;4.13;;
6663;SDS011;58749;48.022;10.922;2022-11-20T04:54:04;9.07;;;3.83;;
6663;SDS011;58749;48.022;10.922;2022-11-20T04:56:34;4.60;;;3.45;;
6663;SDS011;58749;48.022;10.922;2022-11-20T04:59:02;4.05;;;3.30;;
6663;SDS011;58749;48.022;10.922;2022-11-20T05:01:31;3.63;;;2.58;;
6663;SDS011;58749;48.022;10.922;2022-11-20T05:03:59;4.75;;;2.80;;
6663;SDS011;58749;48.022;10.922;2022-11-20T05:06:27;4.57;;;2.38;;
6663;SDS011;58749;48.022;10.922;2022-11-20T05:08:55;4.10;;;2.72;;
6663;SDS011;58749;48.022;10.922;2022-11-20T05:11:23;4.35;;;2.55;;
6663;SDS011;58749;48.022;10.922;2022-11-20T05:13:53;3.40;;;1.77;;
6663;SDS011;58749;48.022;10.922;2022-11-20T05:16:22;2.55;;;2.22;;
6663;SDS011;58749;48.022;10.922;2022-11-20T05:18:51;3.83;;;2.30;;
6663;SDS011;58749;48.022;10.922;2022-11-20T05:21:20;2.75;;;2.30;;
6663;SDS011;58749;48.022;10.922;2022-11-20T05:23:48;3.25;;;2.28;;
6663;SDS011;58749;48.022;10.922;2022-11-20T05:26:17;4.18;;;2.83;;
6663;SDS011;58749;48.022;10.922;2022-11-20T05:28:47;2.88;;;1.90;;
6663;SDS011;58749;48.022;10.922;2022-11-20T05:31:18;2.63;;;2.00;;
6663;SDS011;58749;48.022;10.922;2022-11-20T05:33:53;3.80;;;2.35;;
6663;SDS011;58749;48.022;10.922;2022-11-20T05:36:22;2.50;;;2.22;;
6663;SDS011;58749;48.022;10.922;2022-11-20T05:38:50;3.33;;;2.55;;
6663;SDS011;58749;48.022;10.922;2022-11-20T05:41:26;3.45;;;2.67;;
6663;SDS011;58749;48.022;10.922;2022-11-20T05:43:55;6.65;;;3.35;;
6663;SDS011;58749;48.022;10.922;2022-11-20T05:46:25;3.50;;;2.92;;
6663;SDS011;58749;48.022;10.922;2022-11-20T05:48:55;4.85;;;3.55;;
6663;SDS011;58749;48.022;10.922;2022-11-20T05:51:24;4.43;;;3.80;;
6663;SDS011;58749;48.022;10.922;2022-11-20T05:53:53;5.30;;;3.83;;
6663;SDS011;58749;48.022;10.922;2022-11-20T05:56:22;6.72;;;4.45;;
6663;SDS011;58749;48.022;10.922;2022-11-20T05:58:51;5.13;;;3.83;;
6663;SDS011;58749;48.022;10.922;2022-11-20T06:01:28;6.53;;;3.42;;
6663;SDS011;58749;48.022;10.922;2022-11-20T06:03:56;4.55;;;3.78;;
6663;SDS011;58749;48.022;10.922;2022-11-20T06:06:24;4.80;;;4.30;;
6663;SDS011;58749;48.022;10.922;2022-11-20T06:08:52;6.28;;;3.38;;
6663;SDS011;58749;48.022;10.922;2022-11-20T06:11:22;5.05;;;3.47;;
6663;SDS011;58749;48.022;10.922;2022-11-20T06:13:50;6.82;;;3.70;;
6663;SDS011;58749;48.022;10.922;2022-11-20T06:16:19;4.93;;;3.85;;
6663;SDS011;58749;48.022;10.922;2022-11-20T06:18:49;5.38;;;4.13;;
6663;SDS011;58749;48.022;10.922;2022-11-20T06:21:18;6.00;;;4.07;;
6663;SDS011;58749;48.022;10.922;2022-11-20T06:23:48;4.47;;;3.92;;
6663;SDS011;58749;48.022;10.922;2022-11-20T06:26:17;6.60;;;4.60;;
6663;SDS011;58749;48.022;10.922;2022-11-20T06:28:46;7.03;;;4.32;;
6663;SDS011;58749;48.022;10.922;2022-11-20T06:31:15;5.47;;;4.32;;
6663;SDS011;58749;48.022;10.922;2022-11-20T06:33:46;7.72;;;4.25;;
6663;SDS011;58749;48.022;10.922;2022-11-20T06:36:17;6.45;;;4.13;;
6663;SDS011;58749;48.022;10.922;2022-11-20T06:38:47;6.10;;;4.55;;
6663;SDS011;58749;48.022;10.922;2022-11-20T06:41:16;4.97;;;4.07;;
6663;SDS011;58749;48.022;10.922;2022-11-20T06:43:45;5.25;;;4.15;;
6663;SDS011;58749;48.022;10.922;2022-11-20T06:46:14;5.20;;;3.95;;
6663;SDS011;58749;48.022;10.922;2022-11-20T06:48:44;9.23;;;4.57;;
6663;SDS011;58749;48.022;10.922;2022-11-20T06:51:13;5.95;;;4.00;;
6663;SDS011;58749;48.022;10.922;2022-11-20T06:53:43;6.13;;;4.43;;
6663;SDS011;58749;48.022;10.922;2022-11-20T06:56:11;7.28;;;4.00;;
6663;SDS011;58749;48.022;10.922;2022-11-20T06:58:39;8.35;;;4.22;;
6663;SDS011;58749;48.022;10.922;2022-11-20T07:01:08;6.57;;;4.00;;
6663;SDS011;58749;48.022;10.922;2022-11-20T07:03:38;5.13;;;3.95;;
6663;SDS011;58749;48.022;10.922;2022-11-20T07:06:07;4.32;;;3.58;;
6663;SDS011;58749;48.022;10.922;2022-11-20T07:08:35;5.85;;;3.85;;
6663;SDS011;58749;48.022;10.922;2022-11-20T07:11:06;5.90;;;3.83;;
6663;SDS011;58749;48.022;10.922;2022-11-20T07:13:35;5.60;;;3.75;;
6663;SDS011;58749;48.022;10.922;2022-11-20T07:16:04;4.90;;;3.60;;
6663;SDS011;58749;48.022;10.922;2022-11-20T07:18:35;12.15;;;7.18;;
6663;SDS011;58749;48.022;10.922;2022-11-20T07:21:04;18.98;;;10.25;;
6663;SDS011;58749;48.022;10.922;2022-11-20T07:23:33;14.68;;;6.60;;
6663;SDS011;58749;48.022;10.922;2022-11-20T07:26:03;5.13;;;3.88;;
6663;SDS011;58749;48.022;10.922;2022-11-20T07:28:33;5.38;;;3.67;;
6663;SDS011;58749;48.022;10.922;2022-11-20T07:31:01;5.85;;;3.63;;
6663;SDS011;58749;48.022;10.922;2022-11-20T07:33:30;4.22;;;3.30;;
6663;SDS011;58749;48.022;10.922;2022-11-20T07:35:59;3.97;;;3.25;;
6663;SDS011;58749;48.022;10.922;2022-11-20T07:38:28;5.13;;;3.28;;
6663;SDS011;58749;48.022;10.922;2022-11-20T07:40:56;3.45;;;3.08;;
6663;SDS011;58749;48.022;10.922;2022-11-20T07:43:27;3.63;;;2.83;;
6663;SDS011;58749;48.022;10.922;2022-11-20T07:45:57;4.85;;;3.25;;
6663;SDS011;58749;48.022;10.922;2022-11-20T07:48:26;4.72;;;2.75;;
6663;SDS011;58749;48.022;10.922;2022-11-20T07:50:55;4.15;;;3.05;;
6663;SDS011;58749;48.022;10.922;2022-11-20T07:53:23;3.30;;;2.58;;
6663;SDS011;58749;48.022;10.922;2022-11-20T07:55:51;4.60;;;2.70;;
6663;SDS011;58749;48.022;10.922;2022-11-20T07:58:19;4.15;;;3.03;;
6663;SDS011;58749;48.022;10.922;2022-11-20T08:00:47;16.77;;;8.75;;
6663;SDS011;58749;48.022;10.922;2022-11-20T08:03:17;9.43;;;5.97;;
6663;SDS011;58749;48.022;10.922;2022-11-20T08:05:50;6.20;;;3.30;;
6663;SDS011;58749;48.022;10.922;2022-11-20T08:08:18;6.47;;;3.97;;
6663;SDS011;58749;48.022;10.922;2022-11-20T08:10:46;3.88;;;3.15;;
6663;SDS011;58749;48.022;10.922;2022-11-20T08:13:14;6.05;;;2.95;;
6663;SDS011;58749;48.022;10.922;2022-11-20T08:16:00;4.32;;;3.30;;
6663;SDS011;58749;48.022;10.922;2022-11-20T08:18:29;3.85;;;2.45;;
6663;SDS011;58749;48.022;10.922;2022-11-20T08:21:01;5.03;;;2.65;;
6663;SDS011;58749;48.022;10.922;2022-11-20T08:23:29;5.32;;;3.55;;
6663;SDS011;58749;48.022;10.922;2022-11-20T08:25:58;3.88;;;2.80;;
6663;SDS011;58749;48.022;10.922;2022-11-20T08:28:26;2.60;;;2.40;;
6663;SDS011;58749;48.022;10.922;2022-11-20T08:30:57;4.90;;;2.70;;
6663;SDS011;58749;48.022;10.922;2022-11-20T08:33:26;4.07;;;2.72;;
6663;SDS011;58749;48.022;10.922;2022-11-20T08:35:59;3.03;;;2.22;;
6663;SDS011;58749;48.022;10.922;2022-11-20T08:38:27;2.65;;;2.28;;
6663;SDS011;58749;48.022;10.922;2022-11-20T08:40:56;2.88;;;2.40;;
6663;SDS011;58749;48.022;10.922;2022-11-20T08:43:42;3.45;;;2.20;;
6663;SDS011;58749;48.022;10.922;2022-11-20T08:46:10;2.65;;;1.90;;
6663;SDS011;58749;48.022;10.922;2022-11-20T08:48:38;4.57;;;2.40;;
6663;SDS011;58749;48.022;10.922;2022-11-20T08:51:08;3.13;;;2.50;;
6663;SDS011;58749;48.022;10.922;2022-11-20T08:53:36;4.90;;;2.63;;
6663;SDS011;58749;48.022;10.922;2022-11-20T08:56:06;4.82;;;2.95;;
6663;SDS011;58749;48.022;10.922;2022-11-20T08:58:36;9.90;;;3.15;;
6663;SDS011;58749;48.022;10.922;2022-11-20T09:01:24;4.03;;;2.78;;
6663;SDS011;58749;48.022;10.922;2022-11-20T09:03:54;3.95;;;2.55;;
6663;SDS011;58749;48.022;10.922;2022-11-20T09:06:24;3.33;;;2.80;;
6663;SDS011;58749;48.022;10.922;2022-11-20T09:08:53;2.45;;;2.10;;
6663;SDS011;58749;48.022;10.922;2022-11-20T09:11:21;3.40;;;2.33;;
6663;SDS011;58749;48.022;10.922;2022-11-20T09:13:49;4.70;;;2.55;;
6663;SDS011;58749;48.022;10.922;2022-11-20T09:16:17;3.58;;;2.58;;
6663;SDS011;58749;48.022;10.922;2022-11-20T09:18:45;4.22;;;2.58;;
6663;SDS011;58749;48.022;10.922;2022-11-20T09:21:34;3.63;;;2.38;;
6663;SDS011;58749;48.022;10.922;2022-11-20T09:24:02;4.15;;;2.53;;
6663;SDS011;58749;48.022;10.922;2022-11-20T09:26:31;2.78;;;2.15;;
6663;SDS011;58749;48.022;10.922;2022-11-20T09:28:59;2.35;;;2.05;;
6663;SDS011;58749;48.022;10.922;2022-11-20T09:31:28;2.30;;;1.90;;
6663;SDS011;58749;48.022;10.922;2022-11-20T09:33:56;4.47;;;1.85;;
6663;SDS011;58749;48.022;10.922;2022-11-20T09:36:24;2.65;;;1.67;;
6663;SDS011;58749;48.022;10.922;2022-11-20T09:38:54;1.98;;;1.55;;
6663;SDS011;58749;48.022;10.922;2022-11-20T09:41:35;2.22;;;1.45;;
6663;SDS011;58749;48.022;10.922;2022-11-20T09:44:18;1.65;;;1.48;;
6663;SDS011;58749;48.022;10.922;2022-11-20T09:46:57;3.30;;;2.20;;
6663;SDS011;58749;48.022;10.922;2022-11-20T09:49:32;4.57;;;1.40;;
6663;SDS011;58749;48.022;10.922;2022-11-20T09:52:13;2.45;;;1.23;;
6663;SDS011;58749;48.022;10.922;2022-11-20T09:54:49;1.90;;;1.20;;
6663;SDS011;58749;48.022;10.922;2022-11-20T09:57:19;3.00;;;1.33;;
6663;SDS011;58749;48.022;10.922;2022-11-20T09:59:51;3.33;;;1.40;;
6663;SDS011;58749;48.022;10.922;2022-11-20T10:02:25;2.22;;;1.50;;
6663;SDS011;58749;48.022;10.922;2022-11-20T10:05:05;4.28;;;1.40;;
6663;SDS011;58749;48.022;10.922;2022-11-20T10:07:40;3.47;;;2.30;;
6663;SDS011;58749;48.022;10.922;2022-11-20T10:10:16;3.70;;;2.28;;
6663;SDS011;58749;48.022;10.922;2022-11-20T10:12:52;2.75;;;1.77;;
6663;SDS011;58749;48.022;10.922;2022-11-20T10:15:33;1.70;;;1.20;;
6663;SDS011;58749;48.022;10.922;2022-11-20T10:18:09;1.80;;;1.13;;
6663;SDS011;58749;48.022;10.922;2022-11-20T10:20:46;1.17;;;1.08;;
6663;SDS011;58749;48.022;10.922;2022-11-20T10:23:29;2.17;;;1.40;;
6663;SDS011;58749;48.022;10.922;2022-11-20T10:26:25;2.42;;;1.27;;
6663;SDS011;58749;48.022;10.922;2022-11-20T10:29:06;2.72;;;1.33;;
6663;SDS011;58749;48.022;10.922;2022-11-20T10:31:39;3.75;;;1.38;;
6663;SDS011;58749;48.022;10.922;2022-11-20T10:34:13;1.27;;;1.02;;
6663;SDS011;58749;48.022;10.922;2022-11-20T10:36:50;2.25;;;1.10;;
6663;SDS011;58749;48.022;10.922;2022-11-20T10:41:54;3.20;;;1.70;;
6663;SDS011;58749;48.022;10.922;2022-11-20T10:44:26;5.88;;;1.35;;
6663;SDS011;58749;48.022;10.922;2022-11-20T10:47:19;1.73;;;1.55;;
6663;SDS011;58749;48.022;10.922;2022-11-20T10:49:48;3.28;;;1.33;;
6663;SDS011;58749;48.022;10.922;2022-11-20T10:52:20;1.70;;;1.52;;
6663;SDS011;58749;48.022;10.922;2022-11-20T10:54:59;22.20;;;10.90;;
6663;SDS011;58749;48.022;10.922;2022-11-20T10:57:45;13.45;;;7.15;;
6663;SDS011;58749;48.022;10.922;2022-11-20T11:00:20;2.38;;;2.05;;
6663;SDS011;58749;48.022;10.922;2022-11-20T11:02:49;2.63;;;1.52;;
6663;SDS011;58749;48.022;10.922;2022-11-20T11:05:22;1.42;;;1.33;;
6663;SDS011;58749;48.022;10.922;2022-11-20T11:07:57;5.90;;;1.40;;
6663;SDS011;58749;48.022;10.922;2022-11-20T11:10:28;1.92;;;1.30;;
6663;SDS011;58749;48.022;10.922;2022-11-20T11:13:04;2.50;;;1.40;;
6663;SDS011;58749;48.022;10.922;2022-11-20T11:15:36;1.65;;;1.30;;
6663;SDS011;58749;48.022;10.922;2022-11-20T11:18:07;2.05;;;1.40;;
6663;SDS011;58749;48.022;10.922;2022-11-20T11:20:37;1.73;;;1.43;;
6663;SDS011;58749;48.022;10.922;2022-11-20T11:23:10;2.45;;;1.60;;
6663;SDS011;58749;48.022;10.922;2022-11-20T11:25:56;2.20;;;1.58;;
6663;SDS011;58749;48.022;10.922;2022-11-20T11:28:26;2.55;;;1.70;;
6663;SDS011;58749;48.022;10.922;2022-11-20T11:30:55;1.67;;;1.27;;
6663;SDS011;58749;48.022;10.922;2022-11-20T11:33:23;5.97;;;1.33;;
6663;SDS011;58749;48.022;10.922;2022-11-20T11:35:53;1.88;;;1.58;;
6663;SDS011;58749;48.022;10.922;2022-11-20T11:38:27;2.60;;;1.52;;
6663;SDS011;58749;48.022;10.922;2022-11-20T11:40:57;1.50;;;1.40;;
6663;SDS011;58749;48.022;10.922;2022-11-20T11:43:28;1.73;;;1.20;;
6663;SDS011;58749;48.022;10.922;2022-11-20T11:49:01;2.05;;;1.38;;
6663;SDS011;58749;48.022;10.922;2022-11-20T11:54:18;3.10;;;1.15;;
6663;SDS011;58749;48.022;10.922;2022-11-20T11:56:51;1.55;;;1.45;;
6663;SDS011;58749;48.022;10.922;2022-11-20T11:59:25;1.60;;;1.50;;
6663;SDS011;58749;48.022;10.922;2022-11-20T12:01:57;3.33;;;1.65;;
6663;SDS011;58749;48.022;10.922;2022-11-20T12:04:37;2.58;;;1.70;;
6663;SDS011;58749;48.022;10.922;2022-11-20T12:07:11;6.95;;;2.15;;
6663;SDS011;58749;48.022;10.922;2022-11-20T12:10:10;3.92;;;1.77;;
6663;SDS011;58749;48.022;10.922;2022-11-20T12:12:44;2.08;;;1.70;;
6663;SDS011;58749;48.022;10.922;2022-11-20T12:15:22;5.22;;;1.98;;
6663;SDS011;58749;48.022;10.922;2022-11-20T12:17:54;1.73;;;1.45;;
6663;SDS011;58749;48.022;10.922;2022-11-20T12:20:22;2.03;;;1.63;;
6663;SDS011;58749;48.022;10.922;2022-11-20T12:22:55;1.73;;;1.60;;
6663;SDS011;58749;48.022;10.922;2022-11-20T12:25:30;3.97;;;2.70;;
6663;SDS011;58749;48.022;10.922;2022-11-20T12:31:05;3.72;;;3.00;;
6663;SDS011;58749;48.022;10.922;2022-11-20T12:33:53;2.00;;;1.63;;
6663;SDS011;58749;48.022;10.922;2022-11-20T12:36:31;5.33;;;2.17;;
6663;SDS011;58749;48.022;10.922;2022-11-20T12:39:19;2.88;;;2.13;;
6663;SDS011;58749;48.022;10.922;2022-11-20T12:42:09;3.35;;;2.17;;
6663;SDS011;58749;48.022;10.922;2022-11-20T12:45:18;4.32;;;3.47;;
6663;SDS011;58749;48.022;10.922;2022-11-20T12:48:23;1.98;;;1.70;;
6663;SDS011;58749;48.022;10.922;2022-11-20T12:51:18;2.78;;;1.80;;
6663;SDS011;58749;48.022;10.922;2022-11-20T12:54:00;3.30;;;2.38;;
6663;SDS011;58749;48.022;10.922;2022-11-20T12:56:42;2.65;;;2.22;;
6663;SDS011;58749;48.022;10.922;2022-11-20T12:59:40;4.60;;;2.15;;
6663;SDS011;58749;48.022;10.922;2022-11-20T13:05:08;5.28;;;2.80;;
6663;SDS011;58749;48.022;10.922;2022-11-20T13:07:50;4.82;;;2.70;;
6663;SDS011;58749;48.022;10.922;2022-11-20T13:10:23;5.00;;;2.13;;
6663;SDS011;58749;48.022;10.922;2022-11-20T13:12:57;3.55;;;2.05;;
6663;SDS011;58749;48.022;10.922;2022-11-20T13:15:35;2.45;;;2.00;;
6663;SDS011;58749;48.022;10.922;2022-11-20T13:18:11;1.85;;;1.52;;
6663;SDS011;58749;48.022;10.922;2022-11-20T13:20:43;2.78;;;2.40;;
6663;SDS011;58749;48.022;10.922;2022-11-20T13:23:22;2.80;;;2.17;;
6663;SDS011;58749;48.022;10.922;2022-11-20T13:25:51;2.05;;;1.48;;
6663;SDS011;58749;48.022;10.922;2022-11-20T13:28:31;2.63;;;1.67;;
6663;SDS011;58749;48.022;10.922;2022-11-20T13:30:59;3.03;;;1.85;;
6663;SDS011;58749;48.022;10.922;2022-11-20T13:33:29;5.20;;;2.13;;
6663;SDS011;58749;48.022;10.922;2022-11-20T13:36:00;2.78;;;2.25;;
6663;SDS011;58749;48.022;10.922;2022-11-20T13:38:40;3.27;;;2.00;;
6663;SDS011;58749;48.022;10.922;2022-11-20T13:41:11;4.07;;;2.78;;
6663;SDS011;58749;48.022;10.922;2022-11-20T13:43:58;2.65;;;2.17;;
6663;SDS011;58749;48.022;10.922;2022-11-20T13:46:35;3.60;;;2.45;;
6663;SDS011;58749;48.022;10.922;2022-11-20T13:49:08;2.10;;;1.20;;
6663;SDS011;58749;48.022;10.922;2022-11-20T13:51:42;0.73;;;0.43;;
6663;SDS011;58749;48.022;10.922;2022-11-20T13:57:24;0.60;;;0.40;;
6663;SDS011;58749;48.022;10.922;2022-11-20T14:00:09;5.45;;;2.65;;
6663;SDS011;58749;48.022;10.922;2022-11-20T14:02:40;4.80;;;3.03;;
6663;SDS011;58749;48.022;10.922;2022-11-20T14:05:13;1.58;;;1.02;;
6663;SDS011;58749;48.022;10.922;2022-11-20T14:07:48;9.65;;;4.72;;
6663;SDS011;58749;48.022;10.922;2022-11-20T14:10:21;3.45;;;1.20;;
6663;SDS011;58749;48.022;10.922;2022-11-20T14:12:57;2.85;;;1.85;;
6663;SDS011;58749;48.022;10.922;2022-11-20T14:15:26;3.55;;;2.80;;
6663;SDS011;58749;48.022;10.922;2022-11-20T14:17:56;4.03;;;2.72;;
6663;SDS011;58749;48.022;10.922;2022-11-20T14:20:25;6.22;;;3.58;;
6663;SDS011;58749;48.022;10.922;2022-11-20T14:22:58;3.65;;;2.95;;
6663;SDS011;58749;48.022;10.922;2022-11-20T14:25:26;5.63;;;3.25;;
6663;SDS011;58749;48.022;10.922;2022-11-20T14:27:57;4.20;;;2.17;;
6663;SDS011;58749;48.022;10.922;2022-11-20T14:30:27;1.85;;;1.50;;
6663;SDS011;58749;48.022;10.922;2022-11-20T14:33:03;2.45;;;1.80;;
6663;SDS011;58749;48.022;10.922;2022-11-20T14:35:34;3.40;;;2.00;;
6663;SDS011;58749;48.022;10.922;2022-11-20T14:38:09;2.75;;;1.92;;
6663;SDS011;58749;48.022;10.922;2022-11-20T14:40:39;3.42;;;2.13;;
6663;SDS011;58749;48.022;10.922;2022-11-20T14:43:16;3.25;;;2.10;;
6663;SDS011;58749;48.022;10.922;2022-11-20T14:45:48;5.07;;;2.95;;
6663;SDS011;58749;48.022;10.922;2022-11-20T14:48:25;3.25;;;2.40;;
6663;SDS011;58749;48.022;10.922;2022-11-20T14:50:57;5.43;;;2.15;;
6663;SDS011;58749;48.022;10.922;2022-11-20T14:53:27;4.10;;;2.75;;
6663;SDS011;58749;48.022;10.922;2022-11-20T14:55:56;6.65;;;3.88;;
6663;SDS011;58749;48.022;10.922;2022-11-20T14:58:26;5.65;;;3.45;;
6663;SDS011;58749;48.022;10.922;2022-11-20T15:00:55;4.47;;;2.80;;
6663;SDS011;58749;48.022;10.922;2022-11-20T15:03:30;4.45;;;1.95;;
6663;SDS011;58749;48.022;10.922;2022-11-20T15:05:59;4.40;;;2.38;;
6663;SDS011;58749;48.022;10.922;2022-11-20T15:08:29;2.78;;;2.28;;
6663;SDS011;58749;48.022;10.922;2022-11-20T15:10:58;4.00;;;1.80;;
6663;SDS011;58749;48.022;10.922;2022-11-20T15:13:26;3.70;;;2.03;;
6663;SDS011;58749;48.022;10.922;2022-11-20T15:15:57;6.13;;;3.17;;
6663;SDS011;58749;48.022;10.922;2022-11-20T15:18:28;2.28;;;1.80;;
6663;SDS011;58749;48.022;10.922;2022-11-20T15:20:58;3.60;;;2.22;;
6663;SDS011;58749;48.022;10.922;2022-11-20T15:23:30;2.45;;;1.40;;
6663;SDS011;58749;48.022;10.922;2022-11-20T15:25:58;2.25;;;1.58;;
6663;SDS011;58749;48.022;10.922;2022-11-20T15:28:27;1.92;;;1.35;;
6663;SDS011;58749;48.022;10.922;2022-11-20T15:30:57;2.78;;;1.75;;
6663;SDS011;58749;48.022;10.922;2022-11-20T15:33:25;2.13;;;1.63;;